createdAt,value
2019-01-26T00:00:35.862Z,78.89
2019-01-26T00:01:37.102Z,78.42
2019-01-26T00:02:37.910Z,78.6
2019-01-26T00:03:38.875Z,78.51
2019-01-26T00:04:39.280Z,77.85
2019-01-26T00:05:39.968Z,79.55
2019-01-26T00:06:40.651Z,79.74
2019-01-26T00:07:41.055Z,78.89
2019-01-26T00:08:42.181Z,78.6
2019-01-26T00:09:43.498Z,78.51
2019-01-26T00:10:43.904Z,78.32
2019-01-26T00:11:44.324Z,77.94
2019-01-26T00:12:44.868Z,78.13
2019-01-26T00:13:45.997Z,78.13
2019-01-26T00:14:47.122Z,78.04
2019-01-26T00:15:47.631Z,78.51
2019-01-26T00:16:48.317Z,78.13
2019-01-26T00:17:49.585Z,78.13
2019-01-26T00:18:49.714Z,78.89
2019-01-26T00:19:50.680Z,78.79
2019-01-26T00:20:51.363Z,78.23
2019-01-26T00:21:52.487Z,77.75
2019-01-26T00:22:53.302Z,77.09
2019-01-26T00:23:53.706Z,76.53
2019-01-26T00:24:54.108Z,77.09
2019-01-26T00:25:55.519Z,77.66
2019-01-26T00:26:56.202Z,77.66
2019-01-26T00:27:56.610Z,76.62
2019-01-26T00:28:57.740Z,76.25
2019-01-26T00:29:58.423Z,76.62
2019-01-26T00:30:58.833Z,76.53
2019-01-26T00:31:59.238Z,77.19
2019-01-26T00:32:59.773Z,76.62
2019-01-26T00:34:00.177Z,76.43
2019-01-26T00:35:00.882Z,76.9
2019-01-26T00:36:01.285Z,76.34
2019-01-26T00:37:01.967Z,75.96
2019-01-26T00:38:03.128Z,75.78
2019-01-26T00:39:04.531Z,75.4
2019-01-26T00:40:05.659Z,75.02
2019-01-26T00:41:06.075Z,75.49
2019-01-26T00:42:07.481Z,76.25
2019-01-26T00:43:08.592Z,76.34
2019-01-26T00:44:09.720Z,74.55
2019-01-26T00:45:10.136Z,74.64
2019-01-26T00:46:11.370Z,75.02
2019-01-26T00:47:12.331Z,74.92
2019-01-26T00:48:13.457Z,75.11
2019-01-26T00:49:13.697Z,74.74
2019-01-26T00:50:15.101Z,75.96
2019-01-26T00:51:18.262Z,74.92
2019-01-26T00:52:19.667Z,74.92
2019-01-26T00:53:20.478Z,75.02
2019-01-26T00:54:21.883Z,75.87
2019-01-26T00:55:22.602Z,77
2019-01-26T00:56:23.587Z,77.94
2019-01-26T00:57:23.718Z,77.94
2019-01-26T00:58:25.253Z,77.37
2019-01-26T00:59:25.937Z,77.37
2019-01-26T01:00:26.770Z,78.04
2019-01-26T01:01:27.176Z,78.79
2019-01-26T01:02:28.138Z,79.08
2019-01-26T01:03:28.239Z,77.28
2019-01-26T01:04:29.207Z,77
2019-01-26T01:05:30.167Z,76.62
2019-01-26T01:06:31.164Z,77
2019-01-26T01:07:31.407Z,77.56
2019-01-26T01:08:32.365Z,76.62
2019-01-26T01:09:33.052Z,75.59
2019-01-26T01:10:33.574Z,73.51
2019-01-26T01:11:33.812Z,72.51
2019-01-26T01:12:33.943Z,71.84
2019-01-26T01:13:34.752Z,71.37
2019-01-26T01:14:35.436Z,71.09
2019-01-26T01:15:35.844Z,71.37
2019-01-26T01:16:36.861Z,71.47
2019-01-26T01:17:37.994Z,71.28
2019-01-26T01:18:39.232Z,71.09
2019-01-26T01:19:40.194Z,70.9
2019-01-26T01:20:40.909Z,70.62
2019-01-26T01:21:42.021Z,71.47
2019-01-26T01:22:42.999Z,71.19
2019-01-26T01:23:44.168Z,71.37
2019-01-26T01:24:44.822Z,70.72
2019-01-26T01:25:46.504Z,70.72
2019-01-26T01:26:46.945Z,71
2019-01-26T01:27:47.631Z,71.37
2019-01-26T01:28:47.756Z,71.75
2019-01-26T01:29:48.441Z,72.13
2019-01-26T01:30:49.126Z,72.03
2019-01-26T01:31:49.807Z,72.69
2019-01-26T01:32:50.211Z,71.75
2019-01-26T01:33:51.019Z,72.13
2019-01-26T01:34:52.227Z,72.51
2019-01-26T01:35:52.255Z,72.51
2019-01-26T01:36:53.384Z,73.17
2019-01-26T01:37:54.064Z,73.36
2019-01-26T01:38:55.193Z,73.83
2019-01-26T01:39:55.599Z,74.21
2019-01-26T01:40:56.285Z,74.58
2019-01-26T01:41:57.410Z,75.43
2019-01-26T01:42:58.091Z,75.71
2019-01-26T01:43:58.186Z,76.66
2019-01-26T01:44:59.313Z,76.66
2019-01-26T01:45:59.742Z,76.57
2019-01-26T01:47:00.256Z,77.51
2019-01-26T01:48:01.217Z,77.32
2019-01-26T01:49:01.901Z,76.85
2019-01-26T01:50:02.873Z,77.61
2019-01-26T01:51:03.833Z,78.36
2019-01-26T01:52:04.511Z,77.13
2019-01-26T01:53:04.651Z,76.57
2019-01-26T01:54:05.463Z,76.28
2019-01-26T01:55:06.589Z,76.28
2019-01-26T01:56:07.551Z,76.57
2019-01-26T01:57:07.958Z,77.04
2019-01-26T01:58:08.642Z,76.47
2019-01-26T01:59:09.325Z,77.13
2019-01-26T02:00:10.005Z,77.42
2019-01-26T02:01:10.697Z,77.61
2019-01-26T02:02:11.381Z,78.17
2019-01-26T02:03:11.787Z,78.27
2019-01-26T02:04:12.600Z,78.45
2019-01-26T02:05:13.280Z,77.89
2019-01-26T02:06:14.262Z,78.45
2019-01-26T02:07:15.388Z,78.36
2019-01-26T02:08:16.808Z,78.64
2019-01-26T02:09:17.770Z,78.74
2019-01-26T02:10:18.454Z,78.36
2019-01-26T02:11:18.857Z,78.45
2019-01-26T02:12:19.994Z,78.08
2019-01-26T02:13:20.960Z,78.45
2019-01-26T02:14:21.771Z,78.08
2019-01-26T02:15:22.450Z,77.61
2019-01-26T02:16:22.856Z,75.53
2019-01-26T02:17:23.259Z,75.34
2019-01-26T02:18:23.940Z,74.96
2019-01-26T02:19:24.342Z,74.96
2019-01-26T02:20:25.033Z,74.96
2019-01-26T02:21:25.718Z,74.11
2019-01-26T02:22:26.696Z,73.64
2019-01-26T02:23:27.650Z,73.36
2019-01-26T02:24:28.021Z,71.56
2019-01-26T02:25:29.149Z,71.19
2019-01-26T02:26:29.559Z,71.19
2019-01-26T02:27:30.998Z,70.53
2019-01-26T02:28:31.402Z,70.05
2019-01-26T02:29:32.088Z,70.62
2019-01-26T02:30:33.213Z,70.81
2019-01-26T02:31:34.743Z,70.62
2019-01-26T02:32:35.709Z,70.15
2019-01-26T02:33:36.402Z,69.3
2019-01-26T02:34:37.326Z,69.49
2019-01-26T02:35:37.816Z,69.3
2019-01-26T02:36:38.235Z,69.2
2019-01-26T02:37:39.675Z,69.49
2019-01-26T02:38:39.920Z,69.67
2019-01-26T02:39:40.884Z,69.3
2019-01-26T02:40:42.304Z,69.67
2019-01-26T02:41:42.286Z,69.3
2019-01-26T02:42:43.426Z,69.49
2019-01-26T02:43:43.830Z,68.92
2019-01-26T02:44:45.059Z,68.63
2019-01-26T02:45:45.470Z,68.92
2019-01-26T02:46:46.222Z,69.86
2019-01-26T02:47:47.463Z,69.49
2019-01-26T02:48:48.146Z,69.86
2019-01-26T02:49:48.935Z,69.3
2019-01-26T02:50:48.904Z,68.35
2019-01-26T02:51:49.888Z,68.01
2019-01-26T02:52:49.860Z,68.07
2019-01-26T02:53:51.002Z,68.76
2019-01-26T02:54:52.376Z,68.82
2019-01-26T02:55:52.347Z,68.73
2019-01-26T02:56:53.489Z,68.1
2019-01-26T02:57:54.448Z,68.01
2019-01-26T02:58:54.895Z,67.88
2019-01-26T02:59:55.313Z,68.76
2019-01-26T03:00:55.839Z,68.57
2019-01-26T03:01:56.523Z,68.29
2019-01-26T03:02:57.493Z,68.57
2019-01-26T03:03:58.192Z,68.48
2019-01-26T03:04:59.137Z,69.33
2019-01-26T03:06:00.209Z,69.43
2019-01-26T03:07:00.616Z,69.52
2019-01-26T03:08:01.298Z,68.86
2019-01-26T03:09:01.830Z,68.67
2019-01-26T03:10:02.354Z,69.9
2019-01-26T03:11:02.041Z,69.24
2019-01-26T03:12:02.449Z,69.9
2019-01-26T03:13:03.989Z,69.52
2019-01-26T03:14:03.961Z,69.9
2019-01-26T03:15:03.900Z,69.81
2019-01-26T03:16:04.601Z,69.62
2019-01-26T03:17:07.072Z,70.09
2019-01-26T03:18:07.763Z,70.65
2019-01-26T03:19:08.185Z,70.18
2019-01-26T03:20:08.603Z,70.84
2019-01-26T03:21:08.745Z,71.31
2019-01-26T03:22:09.150Z,72.73
2019-01-26T03:23:09.832Z,72.64
2019-01-26T03:24:10.538Z,72.45
2019-01-26T03:25:11.261Z,72.64
2019-01-26T03:26:11.944Z,73.21
2019-01-26T03:27:13.189Z,74.05
2019-01-26T03:28:13.148Z,74
2019-01-26T03:29:13.557Z,74.15
2019-01-26T03:30:14.525Z,74.09
2019-01-26T03:31:15.624Z,74.09
2019-01-26T03:32:16.777Z,74.76
2019-01-26T03:33:17.058Z,75.6
2019-01-26T03:34:17.883Z,75.7
2019-01-26T03:35:19.369Z,76.74
2019-01-26T03:36:20.070Z,78.72
2019-01-26T03:37:20.475Z,79
2019-01-26T03:38:21.160Z,78.72
2019-01-26T03:39:21.845Z,80.05
2019-01-26T03:40:22.535Z,82.12
2019-01-26T03:41:23.325Z,81.93
2019-01-26T03:42:24.016Z,83.45
2019-01-26T03:43:25.253Z,84.01
2019-01-26T03:44:25.979Z,84.2
2019-01-26T03:45:27.100Z,87.23
2019-01-26T03:46:28.060Z,88.74
2019-01-26T03:47:28.853Z,89.59
2019-01-26T03:48:29.274Z,89.59
2019-01-26T03:49:30.083Z,90.25
2019-01-26T03:50:31.046Z,90.25
2019-01-26T03:51:32.282Z,90.63
2019-01-26T03:52:32.969Z,91.1
2019-01-26T03:53:33.651Z,91.58
2019-01-26T03:54:34.338Z,92.52
2019-01-26T03:55:35.467Z,92.43
2019-01-26T03:56:36.190Z,93.18
2019-01-26T03:57:37.155Z,94.51
2019-01-26T03:58:37.847Z,95.07
2019-01-26T03:59:38.534Z,95.73
2019-01-26T04:00:39.502Z,96.3
2019-01-26T04:01:40.469Z,96.78
2019-01-26T04:02:41.159Z,97.06
2019-01-26T04:03:41.847Z,96.96
2019-01-26T04:04:42.600Z,97.53
2019-01-26T04:05:43.693Z,97.06
2019-01-26T04:06:44.376Z,97.63
2019-01-26T04:07:45.057Z,97.63
2019-01-26T04:08:46.031Z,97.91
2019-01-26T04:09:47.161Z,97.91
2019-01-26T04:10:47.693Z,97.53
2019-01-26T04:11:48.405Z,98.19
2019-01-26T04:12:49.123Z,98
2019-01-26T04:13:49.811Z,98
2019-01-26T04:14:50.776Z,97.34
2019-01-26T04:15:51.333Z,97.81
2019-01-26T04:16:52.018Z,97.63
2019-01-26T04:17:52.707Z,97.72
2019-01-26T04:18:54.117Z,98.1
2019-01-26T04:19:54.547Z,97.53
2019-01-26T04:20:55.512Z,97.63
2019-01-26T04:21:55.916Z,97.53
2019-01-26T04:22:56.325Z,97.72
2019-01-26T04:23:57.146Z,97.63
2019-01-26T04:24:57.556Z,98.19
2019-01-26T04:25:58.220Z,97.91
2019-01-26T04:26:59.185Z,97.72
2019-01-26T04:27:59.439Z,97.63
2019-01-26T04:29:00.698Z,97.44
2019-01-26T04:30:00.948Z,97.53
2019-01-26T04:31:00.643Z,97.06
2019-01-26T04:32:01.613Z,97.44
2019-01-26T04:33:03.126Z,97.53
2019-01-26T04:34:04.102Z,97.06
2019-01-26T04:35:04.623Z,96.96
2019-01-26T04:36:07.039Z,97.25
2019-01-26T04:37:07.305Z,97.44
2019-01-26T04:38:09.002Z,97.53
2019-01-26T04:39:09.695Z,97.63
2019-01-26T04:40:10.663Z,97.53
2019-01-26T04:41:11.355Z,97.44
2019-01-26T04:42:12.065Z,97.34
2019-01-26T04:43:12.583Z,97.91
2019-01-26T04:44:12.990Z,97.44
2019-01-26T04:45:13.521Z,97.44
2019-01-26T04:46:13.789Z,97.53
2019-01-26T04:47:14.468Z,97.91
2019-01-26T04:48:15.158Z,97.72
2019-01-26T04:49:16.419Z,97.81
2019-01-26T04:50:16.830Z,98
2019-01-26T04:51:17.520Z,98.1
2019-01-26T04:52:19.479Z,97.72
2019-01-26T04:53:19.893Z,97.53
2019-01-26T04:54:20.588Z,97.91
2019-01-26T04:55:21.333Z,97.63
2019-01-26T04:56:22.462Z,97.81
2019-01-26T04:57:23.147Z,97.72
2019-01-26T04:58:24.315Z,97.53
2019-01-26T04:59:25.301Z,97.63
2019-01-26T05:00:26.276Z,97.72
2019-01-26T05:01:26.960Z,97.72
2019-01-26T05:02:28.378Z,97.91
2019-01-26T05:03:29.391Z,97.81
2019-01-26T05:04:29.798Z,98.85
2019-01-26T05:05:31.076Z,98.95
2019-01-26T05:06:31.904Z,98.47
2019-01-26T05:07:33.034Z,98.66
2019-01-26T05:08:33.557Z,98.57
2019-01-26T05:09:34.284Z,99.14
2019-01-26T05:10:34.969Z,99
2019-01-26T05:11:36.492Z,99
2019-01-26T05:12:36.458Z,99
2019-01-26T05:13:37.267Z,99.09
2019-01-26T05:14:37.687Z,98.95
2019-01-26T05:15:38.823Z,98.81
2019-01-26T05:16:39.919Z,99.09
2019-01-26T05:17:41.043Z,99.19
2019-01-26T05:18:42.003Z,99
2019-01-26T05:19:42.252Z,98.62
2019-01-26T05:20:43.381Z,98.9
2019-01-26T05:21:44.080Z,99
2019-01-26T05:22:44.487Z,99
2019-01-26T05:23:45.730Z,98.9
2019-01-26T05:24:46.693Z,99.28
2019-01-26T05:25:47.659Z,98.9
2019-01-26T05:26:48.597Z,98.62
2019-01-26T05:27:49.583Z,98.9
2019-01-26T05:28:49.824Z,98.9
2019-01-26T05:29:50.234Z,99
2019-01-26T05:30:50.915Z,98.33
2019-01-26T05:31:51.875Z,98.43
2019-01-26T05:32:52.561Z,98.43
2019-01-26T05:33:54.079Z,98.52
2019-01-26T05:34:55.044Z,98.62
2019-01-26T05:35:55.448Z,98.33
2019-01-26T05:36:56.435Z,98.14
2019-01-26T05:37:56.844Z,98.71
2019-01-26T05:38:57.079Z,98.71
2019-01-26T05:39:57.485Z,98.33
2019-01-26T05:40:58.610Z,98.14
2019-01-26T05:42:00.143Z,98.71
2019-01-26T05:42:59.832Z,98.43
2019-01-26T05:44:00.249Z,98.62
2019-01-26T05:45:00.948Z,98.62
2019-01-26T05:46:01.645Z,98.43
2019-01-26T05:47:02.743Z,98.05
2019-01-26T05:48:03.709Z,97.86
2019-01-26T05:49:04.122Z,98.05
2019-01-26T05:50:04.532Z,97.67
2019-01-26T05:51:05.262Z,97.49
2019-01-26T05:52:06.231Z,97.96
2019-01-26T05:53:07.202Z,97.86
2019-01-26T05:54:07.888Z,98.24
2019-01-26T05:55:08.344Z,97.77
2019-01-26T05:56:09.300Z,98.05
2019-01-26T05:57:09.953Z,97.67
2019-01-26T05:58:10.642Z,97.3
2019-01-26T05:59:10.902Z,97.86
2019-01-26T06:00:12.142Z,97.3
2019-01-26T06:01:12.543Z,97.86
2019-01-26T06:02:13.671Z,98.05
2019-01-26T06:03:14.635Z,97.3
2019-01-26T06:04:15.356Z,97.58
2019-01-26T06:05:16.043Z,97.3
2019-01-26T06:06:17.458Z,97.01
2019-01-26T06:07:18.116Z,96.73
2019-01-26T06:08:18.242Z,96.83
2019-01-26T06:09:18.652Z,96.83
2019-01-26T06:10:20.333Z,96.16
2019-01-26T06:11:20.595Z,96.64
2019-01-26T06:12:20.727Z,96.16
2019-01-26T06:13:21.261Z,95.97
2019-01-26T06:14:21.943Z,95.88
2019-01-26T06:15:22.911Z,95.78
2019-01-26T06:16:23.594Z,95.97
2019-01-26T06:17:24.960Z,95.59
2019-01-26T06:18:25.645Z,95.4
2019-01-26T06:19:26.056Z,95.12
2019-01-26T06:20:26.738Z,93.89
2019-01-26T06:21:28.185Z,94.65
2019-01-26T06:22:28.591Z,94.37
2019-01-26T06:23:29.001Z,94.65
2019-01-26T06:24:29.681Z,94.65
2019-01-26T06:25:30.371Z,94.18
2019-01-26T06:26:30.133Z,94.93
2019-01-26T06:27:30.496Z,94.84
2019-01-26T06:28:30.901Z,94.18
2019-01-26T06:29:32.067Z,94.65
2019-01-26T06:30:33.190Z,94.93
2019-01-26T06:31:33.895Z,94.46
2019-01-26T06:32:34.581Z,95.03
2019-01-26T06:33:35.283Z,94.74
2019-01-26T06:34:36.803Z,94.93
2019-01-26T06:35:36.817Z,94.74
2019-01-26T06:36:36.787Z,94.56
2019-01-26T06:37:36.975Z,94.74
2019-01-26T06:38:37.942Z,94.56
2019-01-26T06:39:39.199Z,94.46
2019-01-26T06:40:39.885Z,94.84
2019-01-26T06:41:41.397Z,94.84
2019-01-26T06:42:42.077Z,94.46
2019-01-26T06:43:42.767Z,94.84
2019-01-26T06:44:43.176Z,94.65
2019-01-26T06:45:43.590Z,94.56
2019-01-26T06:46:43.990Z,94.74
2019-01-26T06:47:45.077Z,94.84
2019-01-26T06:48:45.483Z,93.89
2019-01-26T06:49:45.887Z,93.89
2019-01-26T06:50:46.296Z,93.99
2019-01-26T06:51:46.704Z,94.04
2019-01-26T06:52:47.117Z,94.42
2019-01-26T06:53:48.368Z,93.7
2019-01-26T06:54:48.775Z,93.7
2019-01-26T06:55:50.019Z,93.66
2019-01-26T06:56:50.757Z,93.85
2019-01-26T06:57:51.718Z,93.47
2019-01-26T06:58:52.410Z,93.56
2019-01-26T06:59:52.930Z,93.66
2019-01-26T07:00:53.059Z,94.13
2019-01-26T07:01:53.747Z,94.13
2019-01-26T07:02:54.434Z,93.75
2019-01-26T07:03:55.122Z,93.66
2019-01-26T07:04:55.806Z,93.56
2019-01-26T07:05:56.213Z,93.85
2019-01-26T07:06:57.180Z,93.56
2019-01-26T07:07:57.866Z,93.85
2019-01-26T07:08:58.272Z,93.75
2019-01-26T07:09:58.685Z,93.75
2019-01-26T07:10:59.395Z,93.56
2019-01-26T07:11:59.684Z,93.85
2019-01-26T07:13:00.368Z,93.75
2019-01-26T07:14:01.059Z,93.85
2019-01-26T07:15:02.464Z,93.56
2019-01-26T07:16:03.434Z,93.85
2019-01-26T07:17:03.844Z,93.47
2019-01-26T07:18:10.930Z,93.66
2019-01-26T07:18:16.684Z,93.56
2019-01-26T07:19:17.523Z,92.9
2019-01-26T07:20:18.688Z,92.8
2019-01-26T07:21:19.820Z,92.9
2019-01-26T07:22:20.263Z,92.71
2019-01-26T07:23:20.669Z,92.71
2019-01-26T07:24:21.639Z,93.75
2019-01-26T07:25:22.329Z,93.66
2019-01-26T07:26:23.017Z,93.56
2019-01-26T07:27:23.705Z,93.37
2019-01-26T07:28:24.833Z,93.66
2019-01-26T07:29:26.500Z,92.8
2019-01-26T07:30:26.909Z,92.71
2019-01-26T07:31:27.596Z,93.56
2019-01-26T07:32:28.284Z,93.75
2019-01-26T07:33:29.541Z,93.56
2019-01-26T07:34:29.947Z,92.71
2019-01-26T07:35:31.080Z,93.47
2019-01-26T07:36:32.211Z,93.56
2019-01-26T07:37:33.448Z,92.71
2019-01-26T07:38:33.862Z,92.71
2019-01-26T07:39:35.259Z,92.99
2019-01-26T07:40:36.506Z,93.09
2019-01-26T07:41:36.911Z,92.99
2019-01-26T07:42:37.879Z,92.71
2019-01-26T07:43:37.858Z,92.9
2019-01-26T07:44:38.998Z,93.09
2019-01-26T07:45:39.991Z,92.99
2019-01-26T07:46:40.397Z,92.71
2019-01-26T07:47:41.089Z,92.9
2019-01-26T07:48:41.774Z,92.8
2019-01-26T07:49:42.613Z,92.9
2019-01-26T07:50:43.028Z,93.28
2019-01-26T07:51:43.717Z,92.9
2019-01-26T07:52:44.679Z,92.71
2019-01-26T07:53:45.371Z,92.99
2019-01-26T07:54:45.813Z,93.47
2019-01-26T07:55:46.219Z,93.66
2019-01-26T07:56:47.641Z,93.47
2019-01-26T07:57:48.328Z,93.37
2019-01-26T07:58:49.740Z,93.47
2019-01-26T07:59:50.844Z,93.18
2019-01-26T08:00:51.818Z,93.75
2019-01-26T08:01:52.520Z,93.56
2019-01-26T08:02:53.258Z,93.61
2019-01-26T08:03:53.943Z,93.7
2019-01-26T08:04:55.074Z,93.66
2019-01-26T08:05:56.519Z,93.47
2019-01-26T08:06:57.214Z,93.99
2019-01-26T08:07:57.900Z,93.66
2019-01-26T08:08:59.047Z,93.66
2019-01-26T08:10:00.231Z,92.99
2019-01-26T08:11:00.738Z,93.04
2019-01-26T08:12:01.701Z,92.94
2019-01-26T08:13:01.943Z,92.9
2019-01-26T08:14:02.186Z,93.23
2019-01-26T08:15:02.598Z,92.76
2019-01-26T08:16:03.731Z,93.23
2019-01-26T08:17:04.424Z,93.04
2019-01-26T08:18:05.390Z,92.76
2019-01-26T08:19:05.803Z,93.23
2019-01-26T08:20:06.915Z,93.32
2019-01-26T08:21:07.643Z,93.7
2019-01-26T08:22:08.780Z,93.51
2019-01-26T08:23:09.915Z,93.8
2019-01-26T08:24:10.363Z,93.7
2019-01-26T08:25:11.323Z,94.08
2019-01-26T08:26:12.016Z,94.08
2019-01-26T08:27:12.428Z,93.8
2019-01-26T08:28:13.397Z,93.8
2019-01-26T08:29:14.085Z,92.94
2019-01-26T08:30:14.345Z,93.32
2019-01-26T08:31:15.479Z,92.94
2019-01-26T08:32:16.613Z,93.04
2019-01-26T08:33:17.033Z,93.23
2019-01-26T08:34:18.166Z,93.04
2019-01-26T08:35:19.578Z,93.42
2019-01-26T08:36:19.989Z,92.94
2019-01-26T08:37:20.401Z,93.04
2019-01-26T08:38:21.940Z,92.76
2019-01-26T08:39:22.348Z,93.04
2019-01-26T08:40:23.205Z,93.04
2019-01-26T08:41:23.620Z,92.76
2019-01-26T08:42:24.309Z,92.85
2019-01-26T08:43:25.275Z,92.94
2019-01-26T08:44:25.963Z,93.13
2019-01-26T08:45:26.373Z,92.76
2019-01-26T08:46:27.062Z,93.04
2019-01-26T08:47:27.752Z,92.85
2019-01-26T08:48:32.109Z,92.76
2019-01-26T08:49:33.241Z,92.94
2019-01-26T08:50:34.640Z,93.23
2019-01-26T08:51:35.054Z,92.94
2019-01-26T08:52:35.298Z,93.04
2019-01-26T08:53:36.439Z,92.85
2019-01-26T08:54:37.134Z,93.46
2019-01-26T08:55:37.262Z,93.61
2019-01-26T08:56:38.673Z,92.57
2019-01-26T08:57:40.361Z,92.71
2019-01-26T08:58:40.495Z,93.13
2019-01-26T08:59:40.907Z,93.08
2019-01-26T09:00:41.606Z,92.66
2019-01-26T09:01:42.023Z,92.76
2019-01-26T09:02:43.269Z,92.76
2019-01-26T09:03:43.685Z,92.99
2019-01-26T09:04:44.370Z,92.8
2019-01-26T09:05:44.786Z,92.8
2019-01-26T09:06:45.479Z,92.99
2019-01-26T09:07:46.448Z,92.9
2019-01-26T09:08:46.412Z,92.71
2019-01-26T09:09:46.826Z,92.9
2019-01-26T09:10:47.085Z,92.9
2019-01-26T09:11:47.775Z,93.08
2019-01-26T09:12:48.462Z,92.8
2019-01-26T09:13:48.597Z,93.08
2019-01-26T09:14:49.016Z,92.9
2019-01-26T09:15:49.708Z,93.08
2019-01-26T09:16:50.142Z,92.52
2019-01-26T09:17:51.278Z,93.27
2019-01-26T09:18:51.690Z,93.27
2019-01-26T09:19:52.657Z,92.9
2019-01-26T09:20:54.318Z,92.99
2019-01-26T09:21:54.756Z,92.14
2019-01-26T09:22:55.729Z,92.14
2019-01-26T09:23:56.711Z,92.24
2019-01-26T09:24:57.130Z,92.24
2019-01-26T09:25:58.267Z,92.05
2019-01-26T09:26:59.404Z,92.61
2019-01-26T09:28:00.096Z,92.71
2019-01-26T09:29:01.063Z,92.99
2019-01-26T09:30:05.573Z,92.8
2019-01-26T09:30:14.727Z,92.8
2019-01-26T09:31:15.083Z,92.14
2019-01-26T09:32:16.215Z,92.8
2019-01-26T09:33:16.673Z,92.61
2019-01-26T09:34:17.087Z,92.9
2019-01-26T09:35:17.494Z,92.99
2019-01-26T09:36:18.466Z,92.9
2019-01-26T09:37:18.916Z,93.27
2019-01-26T09:38:19.608Z,92.61
2019-01-26T09:39:20.592Z,92.85
2019-01-26T09:40:21.556Z,93.23
2019-01-26T09:41:21.681Z,92.85
2019-01-26T09:42:22.817Z,93.51
2019-01-26T09:43:26.487Z,92.94
2019-01-26T09:43:37.373Z,93.04
2019-01-26T09:43:49.783Z,92.85
2019-01-26T09:44:00.909Z,93.13
2019-01-26T09:44:13.948Z,93.04
2019-01-26T09:44:26.326Z,93.7
2019-01-26T09:44:37.502Z,93.7
2019-01-26T09:44:51.210Z,93.13
2019-01-26T09:45:04.082Z,93.13
2019-01-26T09:46:01.768Z,93.04
2019-01-26T09:47:02.186Z,93.23
2019-01-26T09:48:02.598Z,92.94
2019-01-26T09:49:03.021Z,92.85
2019-01-26T09:50:04.154Z,92.85
2019-01-26T09:51:05.401Z,92.94
2019-01-26T09:52:06.091Z,92.85
2019-01-26T09:53:07.359Z,92.94
2019-01-26T09:54:07.331Z,92.76
2019-01-26T09:55:08.019Z,92.94
2019-01-26T09:56:12.037Z,92.85
2019-01-26T09:56:22.593Z,92.94
2019-01-26T09:57:21.196Z,92.28
2019-01-26T09:58:21.606Z,92.76
2019-01-26T09:59:22.312Z,92.94
2019-01-26T10:00:22.728Z,92.57
2019-01-26T10:01:23.698Z,92.66
2019-01-26T10:02:25.228Z,93.04
2019-01-26T10:03:25.643Z,93.32
2019-01-26T10:04:26.062Z,92.85
2019-01-26T10:05:28.428Z,93.13
2019-01-26T10:06:27.401Z,93.23
2019-01-26T10:07:27.703Z,93.32
2019-01-26T10:08:28.839Z,93.13
2019-01-26T10:09:29.974Z,93.23
2019-01-26T10:10:30.384Z,93.13
2019-01-26T10:11:31.352Z,93.51
2019-01-26T10:12:32.040Z,93.51
2019-01-26T10:13:32.456Z,93.13
2019-01-26T10:14:33.147Z,92.94
2019-01-26T10:15:33.582Z,93.23
2019-01-26T10:16:34.009Z,93.04
2019-01-26T10:17:34.615Z,93.04
2019-01-26T10:18:35.752Z,93.04
2019-01-26T10:19:36.716Z,93.23
2019-01-26T10:20:37.685Z,93.23
2019-01-26T10:21:38.374Z,93.04
2019-01-26T10:22:39.513Z,92.94
2019-01-26T10:23:39.925Z,93.13
2019-01-26T10:24:40.399Z,93.13
2019-01-26T10:25:49.304Z,92.85
2019-01-26T10:25:53.573Z,93.04
2019-01-26T10:26:53.830Z,93.32
2019-01-26T10:27:54.257Z,93.42
2019-01-26T10:28:55.234Z,93.04
2019-01-26T10:29:56.948Z,93.32
2019-01-26T10:30:58.052Z,93.89
2019-01-26T10:31:59.071Z,93.7
2019-01-26T10:32:59.482Z,93.61
2019-01-26T10:33:59.896Z,93.51
2019-01-26T10:35:01.307Z,93.04
2019-01-26T10:36:02.277Z,94.18
2019-01-26T10:37:02.724Z,93.61
2019-01-26T10:38:02.861Z,93.32
2019-01-26T10:39:03.280Z,94.13
2019-01-26T10:40:04.428Z,93.75
2019-01-26T10:41:05.667Z,93.46
2019-01-26T10:42:06.355Z,94.32
2019-01-26T10:43:07.322Z,94.13
2019-01-26T10:44:08.010Z,94.13
2019-01-26T10:45:08.423Z,94.23
2019-01-26T10:46:08.672Z,93.84
2019-01-26T10:47:10.357Z,94.23
2019-01-26T10:48:10.499Z,93.84
2019-01-26T10:49:11.912Z,93.94
2019-01-26T10:50:12.334Z,94.23
2019-01-26T10:51:13.033Z,94.23
2019-01-26T10:52:14.021Z,94.13
2019-01-26T10:53:14.827Z,93.84
2019-01-26T10:54:15.239Z,95.07
2019-01-26T10:55:15.663Z,94.42
2019-01-26T10:56:16.921Z,94.13
2019-01-26T10:57:17.455Z,94.13
2019-01-26T10:58:17.886Z,94.04
2019-01-26T10:59:19.330Z,94.32
2019-01-26T11:00:20.023Z,94.42
2019-01-26T11:01:21.434Z,94.13
2019-01-26T11:02:22.128Z,94.79
2019-01-26T11:03:22.542Z,94.98
2019-01-26T11:04:23.679Z,94.32
2019-01-26T11:05:24.818Z,94.04
2019-01-26T11:06:25.235Z,93.84
2019-01-26T11:07:25.783Z,94.23
2019-01-26T11:08:26.259Z,94.08
2019-01-26T11:09:26.950Z,94.23
2019-01-26T11:10:27.190Z,94.32
2019-01-26T11:11:27.600Z,94.32
2019-01-26T11:12:28.020Z,94.23
2019-01-26T11:13:29.003Z,94.18
2019-01-26T11:14:29.420Z,93.89
2019-01-26T11:15:30.662Z,93.89
2019-01-26T11:16:31.646Z,94.37
2019-01-26T11:17:32.186Z,94.27
2019-01-26T11:18:33.161Z,93.89
2019-01-26T11:19:33.605Z,93.89
2019-01-26T11:20:34.572Z,93.89
2019-01-26T11:21:35.265Z,94.46
2019-01-26T11:22:35.680Z,93.99
2019-01-26T11:23:36.093Z,94.56
2019-01-26T11:24:37.225Z,94.37
2019-01-26T11:25:38.369Z,94.46
2019-01-26T11:26:39.336Z,94.74
2019-01-26T11:27:40.187Z,94.84
2019-01-26T11:28:40.596Z,94.84
2019-01-26T11:29:41.735Z,94.46
2019-01-26T11:30:42.440Z,94.6
2019-01-26T11:31:43.131Z,95.17
2019-01-26T11:32:44.120Z,94.6
2019-01-26T11:33:46.559Z,94.7
2019-01-26T11:34:46.252Z,94.7
2019-01-26T11:35:47.508Z,95.17
2019-01-26T11:36:48.197Z,95.46
2019-01-26T11:37:48.495Z,94.42
2019-01-26T11:38:49.191Z,95.07
2019-01-26T11:39:49.440Z,95.46
2019-01-26T11:40:50.131Z,95.17
2019-01-26T11:41:51.104Z,95.17
2019-01-26T11:42:51.238Z,95.17
2019-01-26T11:43:52.214Z,95.55
2019-01-26T11:44:52.911Z,95.65
2019-01-26T11:45:53.924Z,95.84
2019-01-26T11:46:54.901Z,95.74
2019-01-26T11:47:55.446Z,95.74
2019-01-26T11:48:56.148Z,95.46
2019-01-26T11:49:57.117Z,95.17
2019-01-26T11:50:58.251Z,95.46
2019-01-26T11:51:59.669Z,95.93
2019-01-26T11:53:00.363Z,95.55
2019-01-26T11:54:01.055Z,95.55
2019-01-26T11:55:02.303Z,95.55
2019-01-26T11:56:02.570Z,95.36
2019-01-26T11:57:02.983Z,95.27
2019-01-26T11:58:03.830Z,95.27
2019-01-26T11:59:03.968Z,95.36
2019-01-26T12:00:04.697Z,95.17
2019-01-26T12:01:04.835Z,95.65
2019-01-26T12:02:05.250Z,95.74
2019-01-26T12:03:05.943Z,96.03
2019-01-26T12:04:07.077Z,95.65
2019-01-26T12:05:07.491Z,96.69
2019-01-26T12:06:08.182Z,96.17
2019-01-26T12:07:08.876Z,95.98
2019-01-26T12:08:08.983Z,96.55
2019-01-26T12:09:09.680Z,96.17
2019-01-26T12:10:10.377Z,96.26
2019-01-26T12:11:13.580Z,96.45
2019-01-26T12:12:13.005Z,96.64
2019-01-26T12:13:14.001Z,96.45
2019-01-26T12:14:15.137Z,96.64
2019-01-26T12:15:15.556Z,96.26
2019-01-26T12:16:16.246Z,96.74
2019-01-26T12:17:16.942Z,96.64
2019-01-26T12:18:17.484Z,96.83
2019-01-26T12:19:23.678Z,97.12
2019-01-26T12:19:30.503Z,96.93
2019-01-26T12:20:30.689Z,96.36
2019-01-26T12:21:31.381Z,96.55
2019-01-26T12:22:32.074Z,96.55
2019-01-26T12:23:34.929Z,96.74
2019-01-26T12:24:37.835Z,96.74
2019-01-26T12:25:37.775Z,96.74
2019-01-26T12:26:38.587Z,96.93
2019-01-26T12:27:39.004Z,96.64
2019-01-26T12:28:39.696Z,97.22
2019-01-26T12:29:40.831Z,97.41
2019-01-26T12:30:41.952Z,96.55
2019-01-26T12:31:42.644Z,96.17
2019-01-26T12:32:43.062Z,95.93
2019-01-26T12:33:43.198Z,96.41
2019-01-26T12:34:47.201Z,96.36
2019-01-26T12:34:58.539Z,95.93
2019-01-26T12:35:10.808Z,96.12
2019-01-26T12:35:22.977Z,96.31
2019-01-26T12:35:33.334Z,96.45
2019-01-26T12:35:46.770Z,96.17
2019-01-26T12:35:58.808Z,96.41
2019-01-26T12:36:11.603Z,96.12
2019-01-26T12:36:23.484Z,96.17
2019-01-26T12:36:35.612Z,96.12
2019-01-26T12:36:48.262Z,96.22
2019-01-26T12:37:00.334Z,96.41
2019-01-26T12:37:12.067Z,96.22
2019-01-26T12:37:24.205Z,96.08
2019-01-26T12:38:22.847Z,96.03
2019-01-26T12:39:24.096Z,96.31
2019-01-26T12:40:25.065Z,96.45
2019-01-26T12:41:26.039Z,95.84
2019-01-26T12:42:27.458Z,96.78
2019-01-26T12:43:28.157Z,96.31
2019-01-26T12:44:29.403Z,96.55
2019-01-26T12:45:29.933Z,96.03